createdAt,value
2017-11-03T00:02:08.081Z,88.47
2017-11-03T00:04:35.672Z,97.43
2017-11-03T00:07:03.236Z,94.10
2017-11-03T00:09:30.879Z,90.10
2017-11-03T00:11:59.224Z,111.80
2017-11-03T00:14:26.844Z,104.47
2017-11-03T00:16:54.410Z,105.93
2017-11-03T00:19:21.978Z,111.30
2017-11-03T00:21:49.569Z,127.37
2017-11-03T00:24:17.132Z,109.47
2017-11-03T00:26:44.909Z,103.50
2017-11-03T00:29:14.168Z,112.27
2017-11-03T00:31:41.776Z,110.07
2017-11-03T00:34:10.140Z,120.70
2017-11-03T00:36:37.708Z,110.90
2017-11-03T00:39:06.063Z,174.83
2017-11-03T00:41:33.624Z,158.82
2017-11-03T00:44:01.221Z,219.37
2017-11-03T00:46:29.560Z,217.75
2017-11-03T00:48:57.151Z,282.30
2017-11-03T00:51:24.728Z,329.63
2017-11-03T00:53:53.084Z,317.37
2017-11-03T00:56:20.657Z,311.63
2017-11-03T00:58:48.247Z,409.30
2017-11-03T01:01:17.176Z,416.05
2017-11-03T01:03:44.788Z,343.93
2017-11-03T01:06:14.356Z,396.77
2017-11-03T01:08:41.924Z,427.80
2017-11-03T01:11:10.289Z,248.83
2017-11-03T01:13:37.859Z,233.40
2017-11-03T01:16:05.540Z,175.40
2017-11-03T01:18:33.104Z,151.75
2017-11-03T01:21:00.697Z,251.70
2017-11-03T01:23:28.268Z,311.23
2017-11-03T01:25:55.861Z,386.63
2017-11-03T01:28:23.432Z,328.60
2017-11-03T01:30:51.028Z,420.27
2017-11-03T01:33:19.363Z,493.13
2017-11-03T01:35:47.045Z,525.87
2017-11-03T01:38:16.324Z,518.27
2017-11-03T01:40:43.916Z,537.63
2017-11-03T01:43:11.485Z,519.27
2017-11-03T01:45:39.845Z,578.83
2017-11-03T01:48:07.416Z,515.07
2017-11-03T01:50:35.003Z,488.73
2017-11-03T01:53:02.573Z,527.80
2017-11-03T01:55:30.165Z,346.03
2017-11-03T01:57:57.728Z,419.90
2017-11-03T02:00:25.410Z,421.83
2017-11-03T02:02:52.983Z,322.47
2017-11-03T02:05:21.345Z,378.27
2017-11-03T02:07:48.916Z,321.73
2017-11-03T02:10:17.275Z,104.20
2017-11-03T02:12:44.967Z,124.57
2017-11-03T02:15:12.690Z,125.50
2017-11-03T02:17:40.649Z,122.77
2017-11-03T02:20:08.619Z,107.83
2017-11-03T02:22:37.819Z,103.73
2017-11-03T02:25:05.461Z,112.50
2017-11-03T02:27:33.091Z,123.37
2017-11-03T02:30:01.467Z,110.13
2017-11-03T02:32:30.046Z,106.50
2017-11-03T02:34:57.620Z,125.85
2017-11-03T02:37:25.956Z,127.78
2017-11-03T02:39:53.548Z,108.17
2017-11-03T02:42:21.125Z,106.60
2017-11-03T02:44:49.485Z,113.53
2017-11-03T02:47:17.055Z,99.03
2017-11-03T02:49:44.648Z,94.10
2017-11-03T02:52:12.212Z,86.47
2017-11-03T02:54:39.809Z,91.70
2017-11-03T02:57:07.375Z,91.77
2017-11-03T02:59:34.977Z,87.03
2017-11-03T03:02:03.308Z,90.80
2017-11-03T03:04:30.916Z,100.20
2017-11-03T03:06:59.247Z,98.43
2017-11-03T03:09:26.812Z,97.12
2017-11-03T03:11:54.396Z,95.90
2017-11-03T03:14:22.776Z,74.32
2017-11-03T03:16:50.360Z,64.07
2017-11-03T03:19:18.694Z,70.80
2017-11-03T03:21:46.556Z,88.30
2017-11-03T03:24:16.356Z,106.30
2017-11-03T03:26:43.973Z,88.07
2017-11-03T03:29:12.308Z,70.60
2017-11-03T03:31:39.878Z,82.07
2017-11-03T03:34:07.468Z,73.03
2017-11-03T03:36:35.798Z,84.70
2017-11-03T03:39:03.392Z,77.70
2017-11-03T03:41:31.732Z,83.10
2017-11-03T03:43:59.316Z,94.33
2017-11-03T03:46:26.888Z,87.40
2017-11-03T03:48:54.484Z,75.50
2017-11-03T03:51:22.815Z,98.07
2017-11-03T03:53:50.700Z,88.17
2017-11-03T03:56:18.268Z,86.95
2017-11-03T03:58:46.608Z,103.63
2017-11-03T04:01:15.124Z,106.90
2017-11-03T04:03:42.683Z,85.17
2017-11-03T04:06:10.281Z,93.43
2017-11-03T04:08:37.904Z,103.40
2017-11-03T04:11:05.492Z,92.57
2017-11-03T04:13:33.830Z,90.40
2017-11-03T04:16:01.435Z,88.60
2017-11-03T04:18:28.996Z,92.00
2017-11-03T04:20:56.827Z,87.97
2017-11-03T04:23:24.397Z,80.62
2017-11-03T04:25:51.963Z,93.67
2017-11-03T04:28:20.312Z,81.37
2017-11-03T04:30:47.880Z,87.60
2017-11-03T04:33:17.488Z,98.60
2017-11-03T04:35:45.159Z,92.77
2017-11-03T04:38:14.306Z,76.82
2017-11-03T04:40:41.873Z,81.17
2017-11-03T04:43:09.455Z,86.27
2017-11-03T04:45:37.021Z,91.83
2017-11-03T04:48:05.007Z,86.97
2017-11-03T04:50:32.576Z,78.72
2017-11-03T04:53:00.135Z,73.67
2017-11-03T04:55:27.727Z,81.80
2017-11-03T04:57:55.289Z,75.27
2017-11-03T05:00:22.912Z,76.35
2017-11-03T05:02:50.571Z,93.60
2017-11-03T05:05:18.161Z,85.20
2017-11-03T05:07:46.492Z,83.80
2017-11-03T05:10:16.232Z,96.67
2017-11-03T05:12:43.801Z,76.57
2017-11-03T05:15:12.159Z,101.33
2017-11-03T05:17:39.719Z,85.63
2017-11-03T05:20:07.317Z,89.50
2017-11-03T05:22:35.656Z,107.07
2017-11-03T05:25:03.251Z,101.33
2017-11-03T05:27:31.764Z,104.93
2017-11-03T05:29:59.356Z,100.23
2017-11-03T05:32:26.925Z,154.40
2017-11-03T05:34:54.597Z,270.67
2017-11-03T05:37:22.260Z,335.27
2017-11-03T05:39:49.852Z,247.20
2017-11-03T05:42:18.180Z,175.43
2017-11-03T05:44:45.772Z,199.57
2017-11-03T05:47:15.132Z,219.00
2017-11-03T05:49:42.724Z,173.97
2017-11-03T05:52:10.288Z,158.87
2017-11-03T05:54:37.884Z,197.80
2017-11-03T05:57:05.454Z,160.00
2017-11-03T05:59:33.355Z,208.60
2017-11-03T06:02:00.928Z,276.27
2017-11-03T06:04:28.532Z,215.23
2017-11-03T06:06:56.104Z,290.10
2017-11-03T06:09:23.665Z,433.70
2017-11-03T06:11:51.281Z,486.83
2017-11-03T06:14:19.616Z,508.27
2017-11-03T06:16:47.212Z,521.03
2017-11-03T06:19:16.604Z,448.83
2017-11-03T06:21:44.200Z,456.37
2017-11-03T06:24:12.536Z,419.30
2017-11-03T06:26:40.129Z,490.37
2017-11-03T06:29:08.464Z,402.97
2017-11-03T06:31:36.056Z,516.77
2017-11-03T06:34:03.621Z,423.53
2017-11-03T06:36:31.284Z,229.90
2017-11-03T06:38:58.957Z,111.27
2017-11-03T06:41:27.427Z,97.70
2017-11-03T06:43:55.097Z,108.33
2017-11-03T06:46:23.441Z,93.90
2017-11-03T06:48:51.060Z,120.27
2017-11-03T06:51:19.392Z,140.43
2017-11-03T06:53:46.984Z,102.90
2017-11-03T06:56:16.275Z,122.97
2017-11-03T06:58:43.868Z,108.03
2017-11-03T07:01:11.432Z,100.13
2017-11-03T07:03:39.015Z,86.07
2017-11-03T07:06:06.591Z,106.60
2017-11-03T07:08:34.188Z,94.57
2017-11-03T07:11:02.517Z,65.80
2017-11-03T07:13:30.321Z,76.00
2017-11-03T07:15:59.387Z,84.07
2017-11-03T07:18:26.948Z,73.33
2017-11-03T07:20:54.636Z,67.93
2017-11-03T07:23:22.204Z,68.47
2017-11-03T07:25:50.572Z,71.73
2017-11-03T07:28:18.245Z,86.75
2017-11-03T07:30:45.908Z,92.03
2017-11-03T07:33:15.484Z,72.75
2017-11-03T07:35:43.276Z,67.53
2017-11-03T07:38:10.840Z,83.03
2017-11-03T07:40:38.407Z,82.10
2017-11-03T07:43:05.992Z,66.90
2017-11-03T07:45:34.321Z,66.87
2017-11-03T07:48:01.916Z,104.43
2017-11-03T07:50:30.252Z,91.70
2017-11-03T07:52:57.836Z,88.40
2017-11-03T07:55:25.399Z,83.43
2017-11-03T07:57:52.984Z,80.10
2017-11-03T08:00:21.315Z,83.07
2017-11-03T08:02:49.303Z,77.50
2017-11-03T08:05:17.663Z,103.83
2017-11-03T08:07:45.251Z,186.90
2017-11-03T08:10:13.768Z,299.70
2017-11-03T08:12:41.336Z,378.00
2017-11-03T08:15:08.925Z,277.33
2017-11-03T08:17:36.492Z,320.63
2017-11-03T08:20:04.089Z,315.23
2017-11-03T08:22:32.460Z,360.05
2017-11-03T08:25:00.121Z,290.00
2017-11-03T08:27:27.693Z,213.10
2017-11-03T08:29:56.060Z,250.20
2017-11-03T08:32:23.636Z,264.05
2017-11-03T08:34:52.205Z,206.17
2017-11-03T08:37:19.773Z,292.30
2017-11-03T08:39:47.342Z,337.20
2017-11-03T08:44:51.257Z,138.83
2017-11-03T08:47:18.852Z,120.20
2017-11-03T08:49:46.415Z,163.43
2017-11-03T08:52:15.584Z,97.13
2017-11-03T08:54:43.919Z,143.57
2017-11-03T08:57:11.545Z,161.63
2017-11-03T08:59:39.116Z,167.07
2017-11-03T09:02:06.685Z,164.50
2017-11-03T09:04:34.278Z,155.25
2017-11-03T09:07:01.857Z,162.97
2017-11-03T09:09:29.452Z,236.52
2017-11-03T09:11:57.016Z,119.33
2017-11-03T09:14:24.839Z,231.85
2017-11-03T09:16:52.416Z,107.23
2017-11-03T09:19:20.749Z,97.40
2017-11-03T09:21:48.685Z,88.57
2017-11-03T09:24:17.407Z,79.37
2017-11-03T09:26:45.001Z,47.77
2017-11-03T09:29:12.572Z,66.43
2017-11-03T09:31:40.928Z,59.13
2017-11-03T09:34:08.604Z,55.40
2017-11-03T09:36:36.201Z,60.13
2017-11-03T09:39:03.768Z,52.03
2017-11-03T09:41:31.387Z,55.00
2017-11-03T09:43:59.048Z,47.67
2017-11-03T09:46:28.239Z,52.05
2017-11-03T09:48:55.808Z,40.00
2017-11-03T09:51:23.404Z,42.43
2017-11-03T09:53:50.974Z,44.23
2017-11-03T09:56:18.563Z,35.73
2017-11-03T09:58:46.152Z,37.47
2017-11-03T10:01:16.173Z,38.23
2017-11-03T10:03:45.247Z,34.03
2017-11-03T10:06:15.316Z,34.55
2017-11-03T10:08:42.880Z,31.37
2017-11-03T10:11:10.448Z,36.50
2017-11-03T10:13:38.044Z,35.43
2017-11-03T10:16:05.616Z,34.10
2017-11-03T10:18:33.213Z,32.72
2017-11-03T10:21:01.544Z,32.77
2017-11-03T10:23:29.412Z,26.67
2017-11-03T10:25:56.996Z,27.17
2017-11-03T10:28:26.298Z,28.37
2017-11-03T10:30:53.864Z,32.83
2017-11-03T10:33:22.200Z,28.10
2017-11-03T10:35:49.795Z,24.20
2017-11-03T10:38:17.459Z,25.67
2017-11-03T10:40:45.056Z,28.43
2017-11-03T10:43:12.679Z,27.53
2017-11-03T10:45:40.272Z,25.27
2017-11-03T10:48:08.600Z,29.00
2017-11-03T10:50:36.192Z,25.77
2017-11-03T10:53:03.844Z,27.43
2017-11-03T10:55:31.496Z,23.20
2017-11-03T10:57:59.070Z,26.93
2017-11-03T11:00:26.663Z,29.47
2017-11-03T11:02:54.288Z,25.43
2017-11-03T11:05:21.889Z,33.43
2017-11-03T11:07:49.456Z,31.07
2017-11-03T11:10:17.186Z,29.27
2017-11-03T11:12:44.756Z,25.17
2017-11-03T11:15:13.112Z,22.80
2017-11-03T11:17:40.708Z,28.47
2017-11-03T11:20:08.336Z,26.93
2017-11-03T11:22:35.932Z,26.67
2017-11-03T11:25:03.501Z,24.33
2017-11-03T11:27:31.093Z,22.40
2017-11-03T11:29:58.685Z,22.77
2017-11-03T11:32:26.340Z,23.90
2017-11-03T11:34:54.677Z,30.70
2017-11-03T11:37:22.284Z,24.83
2017-11-03T11:39:50.622Z,22.33
2017-11-03T11:42:18.223Z,30.25
2017-11-03T11:44:46.556Z,30.27
2017-11-03T11:47:16.512Z,26.55
2017-11-03T11:49:44.176Z,27.33
2017-11-03T11:52:11.767Z,25.50
2017-11-03T11:54:40.125Z,23.87
2017-11-03T11:57:07.717Z,27.77
2017-11-03T11:59:35.633Z,31.30
2017-11-03T12:02:03.316Z,29.13
2017-11-03T12:04:30.984Z,31.10
2017-11-03T12:06:58.741Z,29.30
2017-11-03T12:09:26.311Z,28.52
2017-11-03T12:11:53.891Z,33.23
2017-11-03T12:14:22.349Z,31.48
2017-11-03T12:16:49.916Z,36.60
2017-11-03T12:19:18.280Z,34.03
2017-11-03T12:21:45.950Z,27.13
2017-11-03T12:24:14.737Z,29.48
2017-11-03T12:26:42.304Z,30.57
2017-11-03T12:29:10.664Z,35.40
2017-11-03T12:31:38.237Z,28.13
2017-11-03T12:34:06.100Z,23.40
2017-11-03T12:36:35.177Z,31.17
2017-11-03T12:39:02.760Z,32.10
2017-11-03T12:41:30.428Z,32.17
2017-11-03T12:43:57.991Z,36.33
2017-11-03T12:46:25.649Z,27.50
2017-11-03T12:48:53.312Z,28.77
2017-11-03T12:51:20.977Z,29.67
2017-11-03T12:53:48.632Z,25.60
2017-11-03T12:56:17.311Z,29.48
2017-11-03T12:58:44.984Z,28.37
2017-11-03T13:01:12.614Z,27.10
2017-11-03T13:03:40.189Z,26.53
2017-11-03T13:06:07.872Z,28.33
2017-11-03T13:08:35.532Z,27.37
2017-11-03T13:11:03.199Z,26.50
2017-11-03T13:13:30.793Z,27.17
2017-11-03T13:15:58.359Z,24.67
2017-11-03T13:18:25.947Z,24.47
2017-11-03T13:20:53.512Z,23.10
2017-11-03T13:23:21.132Z,25.98
2017-11-03T13:25:48.793Z,23.40
2017-11-03T13:28:17.755Z,26.77
2017-11-03T13:30:45.320Z,25.13
2017-11-03T13:33:13.901Z,24.43
2017-11-03T13:35:42.981Z,21.87
2017-11-03T13:38:10.735Z,26.40
2017-11-03T13:40:38.308Z,28.80
2017-11-03T13:43:06.069Z,22.90
2017-11-03T13:45:33.669Z,22.83
2017-11-03T13:48:02.028Z,29.00
2017-11-03T13:50:29.692Z,26.20
2017-11-03T13:52:57.356Z,32.13
2017-11-03T13:55:24.952Z,27.43
2017-11-03T13:57:52.525Z,28.60
2017-11-03T14:00:20.240Z,27.25
2017-11-03T14:02:48.620Z,28.07
2017-11-03T14:05:17.276Z,34.17
2017-11-03T14:07:44.976Z,31.67
2017-11-03T14:10:14.236Z,31.67
2017-11-03T14:12:41.828Z,35.13
2017-11-03T14:15:09.396Z,28.50
2017-11-03T14:17:36.996Z,31.70
2017-11-03T14:20:04.612Z,30.83
2017-11-03T14:22:32.230Z,27.93
2017-11-03T14:24:59.816Z,32.50
2017-11-03T14:27:27.425Z,33.67
2017-11-03T14:29:55.756Z,33.97
2017-11-03T14:32:23.332Z,33.10
2017-11-03T14:34:50.929Z,37.57
2017-11-03T14:37:18.500Z,28.48
2017-11-03T14:39:46.104Z,31.30
2017-11-03T14:42:14.603Z,32.13
2017-11-03T14:44:42.368Z,38.93
2017-11-03T14:47:09.935Z,33.47
2017-11-03T14:49:37.500Z,33.90
2017-11-03T14:52:05.861Z,36.50
2017-11-03T14:54:33.528Z,30.47
2017-11-03T14:57:01.125Z,33.53
2017-11-03T14:59:28.756Z,32.95
2017-11-03T15:01:57.117Z,34.93
2017-11-03T15:04:24.688Z,30.07
2017-11-03T15:06:54.076Z,28.10
2017-11-03T15:09:21.652Z,37.53
2017-11-03T15:11:49.225Z,39.77
2017-11-03T15:14:16.813Z,34.87
2017-11-03T15:16:44.380Z,32.70
2017-11-03T15:19:11.972Z,32.10
2017-11-03T15:21:39.565Z,34.37
2017-11-03T15:24:07.925Z,31.60
2017-11-03T15:26:35.496Z,41.15
2017-11-03T15:29:03.096Z,36.60
2017-11-03T15:31:30.692Z,30.02
2017-11-03T15:33:58.301Z,32.23
2017-11-03T15:36:26.641Z,33.07
2017-11-03T15:38:54.306Z,35.90
2017-11-03T15:41:21.956Z,30.48
2017-11-03T15:43:49.587Z,36.77
2017-11-03T15:46:17.172Z,35.60
2017-11-03T15:48:44.767Z,39.60
2017-11-03T15:51:12.351Z,39.67
2017-11-03T15:53:40.768Z,38.77
2017-11-03T15:56:08.333Z,71.67
2017-11-03T15:58:35.909Z,66.50
2017-11-03T16:01:03.496Z,77.93
2017-11-03T16:03:31.084Z,97.10
2017-11-03T16:05:59.957Z,85.30
2017-11-03T16:08:28.285Z,50.20
2017-11-03T16:10:56.464Z,38.47
2017-11-03T16:13:24.055Z,39.25
2017-11-03T16:15:51.903Z,39.92
2017-11-03T16:18:19.524Z,42.50
2017-11-03T16:20:47.084Z,42.33
2017-11-03T16:23:15.535Z,45.57
2017-11-03T16:25:43.864Z,38.30
2017-11-03T16:28:11.462Z,38.73
2017-11-03T16:30:39.044Z,41.47
2017-11-03T16:33:07.412Z,40.10
2017-11-03T16:35:34.993Z,46.87
2017-11-03T16:38:03.345Z,50.80
2017-11-03T16:40:30.911Z,51.27
2017-11-03T16:42:58.532Z,53.57
2017-11-03T16:45:26.109Z,515.53
2017-11-03T16:47:53.689Z,1108.30
2017-11-03T16:50:21.288Z,190.77
2017-11-03T16:52:48.869Z,59.00
2017-11-03T16:55:17.587Z,148.57
2017-11-03T16:57:45.157Z,113.87
2017-11-03T17:00:19.683Z,112.68
2017-11-03T17:02:47.883Z,54.60
2017-11-03T17:05:16.489Z,81.20
2017-11-03T17:07:44.062Z,63.80
2017-11-03T17:10:11.661Z,49.40
2017-11-03T17:12:39.251Z,56.23
2017-11-03T17:15:07.582Z,49.13
2017-11-03T17:17:35.176Z,55.28
2017-11-03T17:20:02.747Z,59.50
2017-11-03T17:22:31.107Z,46.83
2017-11-03T17:24:58.771Z,35.23
2017-11-03T17:27:26.357Z,35.23
2017-11-03T17:29:54.689Z,55.27
2017-11-03T17:32:22.279Z,43.97
2017-11-03T17:34:51.348Z,49.63
2017-11-03T17:37:18.931Z,46.50
2017-11-03T17:39:46.501Z,41.50
2017-11-03T17:42:16.296Z,51.30
2017-11-03T17:44:44.842Z,65.10
2017-11-03T17:47:12.545Z,65.28
2017-11-03T17:49:40.903Z,49.67
2017-11-03T17:52:08.647Z,60.07
2017-11-03T17:54:36.213Z,54.17
2017-11-03T17:57:03.841Z,52.07
2017-11-03T17:59:32.301Z,59.93
2017-11-03T18:01:59.872Z,76.20
2017-11-03T18:04:28.223Z,47.75
2017-11-03T18:06:55.793Z,138.47
2017-11-03T18:09:23.451Z,109.05
2017-11-03T18:11:51.016Z,63.78
2017-11-03T18:14:18.607Z,132.70
2017-11-03T18:16:46.944Z,52.20
2017-11-03T18:19:16.715Z,134.10
2017-11-03T18:21:44.296Z,71.97
2017-11-03T18:24:11.899Z,62.65
2017-11-03T18:26:39.769Z,69.77
2017-11-03T18:29:08.175Z,68.37
2017-11-03T18:31:35.792Z,59.57
2017-11-03T18:34:04.223Z,59.43
2017-11-03T18:36:31.813Z,60.97
2017-11-03T18:38:59.375Z,69.27
2017-11-03T18:41:26.960Z,70.70
2017-11-03T18:43:54.524Z,73.10
2017-11-03T18:46:23.188Z,66.93
2017-11-03T18:48:50.756Z,70.80
2017-11-03T18:51:18.351Z,72.97
2017-11-03T18:53:46.747Z,63.10
2017-11-03T18:56:15.643Z,60.33
2017-11-03T18:58:43.218Z,63.30
2017-11-03T19:01:10.820Z,60.77
2017-11-03T19:03:39.188Z,58.53
2017-11-03T19:06:06.835Z,59.57
2017-11-03T19:08:35.220Z,64.37
2017-11-03T19:11:02.812Z,62.03
2017-11-03T19:13:30.396Z,62.90
2017-11-03T19:15:58.043Z,75.27
2017-11-03T19:18:26.387Z,63.10
2017-11-03T19:20:54.027Z,76.87
2017-11-03T19:23:21.634Z,71.10
2017-11-03T19:25:49.497Z,71.23
2017-11-03T19:28:17.101Z,65.50
2017-11-03T19:30:45.488Z,58.10
2017-11-03T19:33:13.291Z,55.70
2017-11-03T19:35:41.092Z,68.43
2017-11-03T19:38:09.468Z,59.50
2017-11-03T19:40:37.834Z,61.77
2017-11-03T19:43:06.188Z,65.97
2017-11-03T19:45:33.775Z,68.85
2017-11-03T19:48:02.157Z,63.73
2017-11-03T19:50:30.489Z,67.43
2017-11-03T19:52:58.260Z,65.70
2017-11-03T19:55:25.908Z,61.65
2017-11-03T19:57:53.536Z,58.80
2017-11-03T20:00:21.896Z,64.97
2017-11-03T20:02:49.561Z,71.47
2017-11-03T20:05:17.998Z,54.37
2017-11-03T20:07:45.567Z,57.20
2017-11-03T20:10:14.838Z,59.58
2017-11-03T20:12:42.557Z,63.47
2017-11-03T20:15:10.485Z,58.60
2017-11-03T20:17:38.089Z,54.07
2017-11-03T20:20:05.723Z,65.53
2017-11-03T20:22:33.341Z,61.93
2017-11-03T20:25:00.929Z,56.30
2017-11-03T20:27:28.599Z,67.10
2017-11-03T20:29:56.215Z,65.50
2017-11-03T20:32:24.680Z,77.93
2017-11-03T20:34:52.312Z,70.70
2017-11-03T20:37:20.018Z,72.33
2017-11-03T20:39:47.588Z,67.20
2017-11-03T20:42:16.371Z,64.17
2017-11-03T20:44:44.741Z,76.47
2017-11-03T20:47:13.308Z,84.53
2017-11-03T20:49:40.953Z,70.73
2017-11-03T20:52:08.520Z,72.47
2017-11-03T20:54:36.359Z,69.87
2017-11-03T20:57:03.925Z,73.90
2017-11-03T20:59:31.495Z,73.40
2017-11-03T21:01:59.136Z,65.33
2017-11-03T21:04:27.149Z,80.23
2017-11-03T21:06:54.767Z,64.77
2017-11-03T21:09:22.328Z,65.33
2017-11-03T21:11:49.916Z,71.50
2017-11-03T21:14:17.483Z,61.20
2017-11-03T21:16:45.236Z,66.13
2017-11-03T21:19:14.188Z,72.37
2017-11-03T21:21:42.618Z,72.03
2017-11-03T21:24:10.363Z,59.00
2017-11-03T21:26:37.981Z,64.00
2017-11-03T21:29:05.577Z,68.47
2017-11-03T21:31:33.136Z,70.70
2017-11-03T21:34:00.774Z,67.97
2017-11-03T21:36:29.132Z,63.75
2017-11-03T21:38:56.721Z,57.17
2017-11-03T21:41:25.082Z,59.10
2017-11-03T21:43:53.500Z,66.40
2017-11-03T21:46:21.200Z,60.70
2017-11-03T21:48:48.792Z,53.53
2017-11-03T21:51:17.487Z,61.95
2017-11-03T21:53:45.892Z,64.23
2017-11-03T21:56:15.256Z,58.07
2017-11-03T21:58:43.589Z,64.07
2017-11-03T22:01:11.187Z,59.80
2017-11-03T22:03:38.827Z,71.13
2017-11-03T22:06:06.439Z,70.37
2017-11-03T22:08:34.880Z,74.93
2017-11-03T22:11:02.445Z,65.13
2017-11-03T22:13:30.116Z,70.43
2017-11-03T22:15:57.776Z,65.30
2017-11-03T22:18:25.364Z,64.07
2017-11-03T22:20:53.708Z,78.80
2017-11-03T22:23:21.334Z,63.58
2017-11-03T22:25:49.771Z,72.70
2017-11-03T22:28:18.171Z,79.97
2017-11-03T22:30:46.501Z,70.75
2017-11-03T22:33:15.616Z,77.28
2017-11-03T22:35:43.183Z,81.43
2017-11-03T22:38:11.660Z,83.43
2017-11-03T22:40:39.228Z,74.53
2017-11-03T22:43:06.798Z,81.67
2017-11-03T22:45:35.158Z,93.32
2017-11-03T22:48:02.770Z,98.93
2017-11-03T22:50:30.395Z,94.23
2017-11-03T22:52:57.998Z,76.17
2017-11-03T22:55:25.589Z,76.10
2017-11-03T22:57:53.160Z,76.13
2017-11-03T23:00:20.764Z,80.57
2017-11-03T23:02:48.367Z,76.83
2017-11-03T23:05:17.357Z,78.72
2017-11-03T23:07:44.948Z,66.30
2017-11-03T23:10:12.511Z,86.70
2017-11-03T23:12:40.100Z,68.13
2017-11-03T23:15:07.668Z,67.60
2017-11-03T23:17:35.257Z,69.17
2017-11-03T23:20:02.862Z,59.65
2017-11-03T23:22:30.448Z,65.83
2017-11-03T23:24:58.008Z,76.60
2017-11-03T23:27:25.608Z,70.50
2017-11-03T23:29:53.183Z,74.77
2017-11-03T23:32:20.776Z,83.78
2017-11-03T23:34:49.108Z,77.50
2017-11-03T23:37:16.935Z,72.60
2017-11-03T23:39:44.500Z,85.70
2017-11-03T23:42:12.126Z,79.43
2017-11-03T23:44:39.786Z,75.90
2017-11-03T23:47:07.445Z,78.90
2017-11-03T23:49:35.039Z,81.97
2017-11-03T23:52:03.371Z,76.63
2017-11-03T23:54:31.360Z,69.20
2017-11-03T23:56:58.921Z,68.30
2017-11-03T23:59:26.484Z,71.73
